Time;durP1;ratioP1;P1;durP2;ratioP2;P2;SDS_P1;SDS_P2;PMS_P1;PMS_P2;Temp;Humidity;BMP_temperature;BMP_pressure;BME280_temperature;BME280_humidity;BME280_pressure;Samples;Min_cycle;Max_cycle;Signal;HPM_P1;HPM_P2
2023/08/14 00:01:56;;;;;;;2.85;2.65;;;;;;;;;;4953747;29;20209;-83
2023/08/14 00:04:24;;;;;;;2.63;2.28;;;;;;;;;;4954322;29;20199;-84
2023/08/14 00:06:53;;;;;;;2.42;2.33;;;;;;;;;;4953657;29;20284;-83
2023/08/14 00:09:22;;;;;;;4.35;2.65;;;;;;;;;;4952774;28;20243;-84
2023/08/14 00:11:52;;;;;;;3.25;3.03;;;;;;;;;;4953890;29;20748;-84
2023/08/14 00:14:25;;;;;;;2.60;2.40;;;;;;;;;;4953504;29;20678;-84
2023/08/14 00:16:54;;;;;;;4.45;3.45;;;;;;;;;;4953828;29;20565;-85
2023/08/14 00:19:23;;;;;;;2.72;2.55;;;;;;;;;;4952841;29;20204;-83
2023/08/14 00:21:52;;;;;;;3.10;2.80;;;;;;;;;;4953087;29;20238;-83
2023/08/14 00:24:21;;;;;;;2.70;2.58;;;;;;;;;;4953613;28;20245;-84
2023/08/14 00:26:51;;;;;;;7.50;3.25;;;;;;;;;;4954337;29;20222;-83
2023/08/14 00:29:19;;;;;;;2.05;1.90;;;;;;;;;;4953144;29;20218;-83
2023/08/14 00:31:49;;;;;;;3.17;2.13;;;;;;;;;;4954469;29;20206;-82
2023/08/14 00:34:18;;;;;;;3.90;2.95;;;;;;;;;;4953963;29;20232;-84
2023/08/14 00:36:47;;;;;;;3.43;3.13;;;;;;;;;;4952759;29;20199;-84
2023/08/14 00:39:18;;;;;;;4.93;3.47;;;;;;;;;;4953263;29;20734;-83
2023/08/14 00:41:46;;;;;;;3.55;3.25;;;;;;;;;;4953821;29;20208;-83
2023/08/14 00:44:16;;;;;;;5.35;3.40;;;;;;;;;;4953245;29;20210;-84
2023/08/14 00:46:46;;;;;;;4.90;3.00;;;;;;;;;;4953779;29;20189;-83
2023/08/14 00:49:17;;;;;;;3.13;2.73;;;;;;;;;;4952706;29;20715;-85
2023/08/14 00:51:46;;;;;;;4.10;3.05;;;;;;;;;;4953117;29;20242;-83
2023/08/14 00:54:15;;;;;;;2.92;2.72;;;;;;;;;;4953169;29;20236;-82
2023/08/14 00:56:44;;;;;;;2.95;2.75;;;;;;;;;;4952830;29;20212;-83
2023/08/14 00:59:14;;;;;;;2.90;2.70;;;;;;;;;;4952843;29;20209;-83
2023/08/14 01:01:43;;;;;;;3.43;2.63;;;;;;;;;;4953990;29;20206;-83
2023/08/14 01:04:11;;;;;;;3.63;3.03;;;;;;;;;;4953617;29;20219;-84
2023/08/14 01:06:42;;;;;;;3.37;3.07;;;;;;;;;;4952399;29;20614;-84
2023/08/14 01:09:14;;;;;;;3.28;2.97;;;;;;;;;;4953440;29;20225;-84
2023/08/14 01:11:47;;;;;;;3.70;3.40;;;;;;;;;;4952326;28;20570;-84
2023/08/14 01:14:20;;;;;;;3.60;3.33;;;;;;;;;;4952690;29;20650;-84
2023/08/14 01:16:52;;;;;;;2.97;2.77;;;;;;;;;;4952731;29;20724;-84
2023/08/14 01:19:21;;;;;;;3.75;2.65;;;;;;;;;;4953142;29;20735;-84
2023/08/14 01:21:55;;;;;;;2.97;2.67;;;;;;;;;;4952561;29;20290;-83
2023/08/14 01:24:27;;;;;;;3.03;2.83;;;;;;;;;;4953224;29;20203;-83
2023/08/14 01:27:00;;;;;;;3.73;3.27;;;;;;;;;;4953356;29;20215;-83
2023/08/14 01:29:30;;;;;;;2.90;2.70;;;;;;;;;;4952236;29;20198;-85
2023/08/14 01:32:00;;;;;;;3.10;2.90;;;;;;;;;;4953351;29;20191;-83
2023/08/14 01:34:30;;;;;;;3.22;2.97;;;;;;;;;;4952995;29;20218;-84
2023/08/14 01:37:00;;;;;;;3.73;3.43;;;;;;;;;;4951424;29;20201;-83
2023/08/14 01:39:32;;;;;;;4.30;3.00;;;;;;;;;;4952469;29;20236;-83
2023/08/14 01:42:10;;;;;;;2.87;2.67;;;;;;;;;;4953260;29;20217;-83
2023/08/14 01:44:40;;;;;;;3.43;3.23;;;;;;;;;;4951016;29;20207;-85
2023/08/14 01:47:11;;;;;;;3.60;3.00;;;;;;;;;;4951349;29;20212;-85
2023/08/14 01:49:41;;;;;;;3.17;2.87;;;;;;;;;;4951168;29;20198;-84
2023/08/14 01:52:11;;;;;;;2.90;2.70;;;;;;;;;;4950813;29;20205;-83
2023/08/14 01:54:41;;;;;;;2.77;2.67;;;;;;;;;;4951684;29;20274;-85
2023/08/14 01:57:11;;;;;;;3.05;2.85;;;;;;;;;;4951516;29;20679;-86
2023/08/14 01:59:45;;;;;;;3.23;2.93;;;;;;;;;;4950949;29;20286;-85
2023/08/14 02:02:14;;;;;;;3.13;2.90;;;;;;;;;;4951112;29;20197;-83
2023/08/14 02:04:44;;;;;;;3.60;3.33;;;;;;;;;;4951296;29;20699;-83
2023/08/14 02:07:12;;;;;;;3.27;2.83;;;;;;;;;;4950427;29;20203;-84
2023/08/14 02:09:42;;;;;;;3.10;2.83;;;;;;;;;;4951302;28;20258;-84
2023/08/14 02:12:12;;;;;;;3.10;2.70;;;;;;;;;;4951856;29;20599;-86
2023/08/14 02:14:40;;;;;;;2.83;2.63;;;;;;;;;;4949911;29;20206;-84
2023/08/14 02:17:09;;;;;;;2.70;2.60;;;;;;;;;;4950813;28;20265;-84
2023/08/14 02:19:38;;;;;;;2.57;2.37;;;;;;;;;;4951110;29;20667;-84
2023/08/14 02:22:07;;;;;;;2.63;2.53;;;;;;;;;;4949992;29;20196;-84
2023/08/14 02:24:36;;;;;;;2.90;2.63;;;;;;;;;;4951441;29;20299;-84
2023/08/14 02:27:07;;;;;;;2.80;2.60;;;;;;;;;;4951863;29;20285;-85
2023/08/14 02:29:39;;;;;;;2.87;2.37;;;;;;;;;;4950917;29;20586;-85
2023/08/14 02:32:07;;;;;;;2.57;2.47;;;;;;;;;;4952036;29;20191;-86
2023/08/14 02:34:43;;;;;;;3.00;2.70;;;;;;;;;;4950432;29;20211;-84
2023/08/14 02:37:13;;;;;;;2.47;2.27;;;;;;;;;;4950534;29;20206;-86
2023/08/14 02:39:43;;;;;;;2.40;2.20;;;;;;;;;;4951023;29;20208;-84
2023/08/14 02:42:11;;;;;;;2.90;2.60;;;;;;;;;;4950948;29;20202;-83
2023/08/14 02:44:41;;;;;;;2.47;2.33;;;;;;;;;;4950421;29;20211;-84
2023/08/14 02:47:09;;;;;;;2.50;2.23;;;;;;;;;;4951524;28;20235;-83
2023/08/14 02:49:39;;;;;;;3.20;2.90;;;;;;;;;;4953004;29;20700;-83
2023/08/14 02:52:09;;;;;;;3.33;3.13;;;;;;;;;;4953702;29;20208;-83
2023/08/14 02:54:38;;;;;;;4.93;2.60;;;;;;;;;;4953990;29;20668;-84
2023/08/14 02:57:07;;;;;;;2.67;2.57;;;;;;;;;;4954621;29;20281;-84
2023/08/14 02:59:35;;;;;;;2.60;2.50;;;;;;;;;;4954011;29;20306;-84
2023/08/14 03:02:07;;;;;;;2.67;2.50;;;;;;;;;;4954007;29;20218;-85
2023/08/14 03:04:37;;;;;;;3.20;2.90;;;;;;;;;;4954247;29;20213;-84
2023/08/14 03:07:07;;;;;;;3.13;2.50;;;;;;;;;;4954445;29;20206;-84
2023/08/14 03:09:34;;;;;;;2.80;2.50;;;;;;;;;;4953559;28;20277;-84
2023/08/14 03:12:05;;;;;;;3.40;3.10;;;;;;;;;;4954180;29;20627;-84
2023/08/14 03:14:34;;;;;;;4.70;2.77;;;;;;;;;;4953531;29;20191;-83
2023/08/14 03:17:03;;;;;;;3.50;3.30;;;;;;;;;;4954026;29;20224;-85
2023/08/14 03:19:35;;;;;;;2.90;2.67;;;;;;;;;;4953435;29;20701;-83
2023/08/14 03:22:03;;;;;;;3.23;2.93;;;;;;;;;;4953680;29;20191;-84
2023/08/14 03:24:33;;;;;;;4.73;2.93;;;;;;;;;;4953963;29;20225;-83
2023/08/14 03:27:01;;;;;;;3.30;2.83;;;;;;;;;;4954089;29;20207;-83
2023/08/14 03:29:30;;;;;;;5.03;3.30;;;;;;;;;;4972926;29;20200;-84
2023/08/14 03:32:01;;;;;;;3.20;2.73;;;;;;;;;;4970753;29;20226;-83
2023/08/14 03:34:30;;;;;;;3.20;2.90;;;;;;;;;;4964922;29;20658;-84
2023/08/14 03:37:00;;;;;;;3.00;2.80;;;;;;;;;;4955853;29;20198;-84
2023/08/14 03:39:31;;;;;;;3.13;2.87;;;;;;;;;;4959536;29;20629;-84
2023/08/14 03:42:04;;;;;;;2.90;2.70;;;;;;;;;;4962922;29;20207;-84
2023/08/14 03:44:34;;;;;;;2.80;2.60;;;;;;;;;;4957763;29;20246;-83
2023/08/14 03:47:02;;;;;;;2.73;2.53;;;;;;;;;;4955968;29;20250;-83
2023/08/14 03:49:32;;;;;;;3.77;3.47;;;;;;;;;;4954309;29;20241;-85
2023/08/14 03:52:03;;;;;;;5.97;3.63;;;;;;;;;;4954570;29;20228;-85
2023/08/14 03:54:31;;;;;;;3.10;2.50;;;;;;;;;;4953307;29;20270;-85
2023/08/14 03:57:01;;;;;;;5.75;3.28;;;;;;;;;;4952387;29;20554;-85
2023/08/14 03:59:31;;;;;;;2.75;2.55;;;;;;;;;;4952843;28;20206;-85
2023/08/14 04:01:59;;;;;;;2.47;2.38;;;;;;;;;;4953393;29;20210;-84
2023/08/14 04:04:30;;;;;;;2.75;2.63;;;;;;;;;;4952270;29;20269;-84
2023/08/14 04:07:00;;;;;;;2.63;2.42;;;;;;;;;;4953085;29;20278;-85
2023/08/14 04:09:28;;;;;;;3.92;2.65;;;;;;;;;;4952345;28;20238;-85
2023/08/14 04:12:01;;;;;;;2.70;2.60;;;;;;;;;;4951960;29;20301;-85
2023/08/14 04:14:30;;;;;;;3.15;2.80;;;;;;;;;;4953136;29;20221;-85
2023/08/14 04:17:00;;;;;;;3.25;2.95;;;;;;;;;;4952539;29;20210;-86
2023/08/14 04:19:30;;;;;;;2.78;2.67;;;;;;;;;;4952572;29;20209;-86
2023/08/14 04:21:59;;;;;;;3.13;2.78;;;;;;;;;;4952499;29;20214;-85
2023/08/14 04:24:29;;;;;;;3.10;3.00;;;;;;;;;;4951880;29;20203;-86
2023/08/14 04:27:00;;;;;;;3.10;2.90;;;;;;;;;;4951562;29;20230;-85
2023/08/14 04:29:33;;;;;;;3.80;2.85;;;;;;;;;;4952623;29;20218;-85
2023/08/14 04:32:02;;;;;;;2.38;2.28;;;;;;;;;;4952927;29;20453;-85
2023/08/14 04:34:30;;;;;;;3.10;2.90;;;;;;;;;;4951050;29;20217;-86
2023/08/14 04:37:00;;;;;;;3.47;2.65;;;;;;;;;;4952647;29;20213;-85
2023/08/14 04:39:30;;;;;;;3.15;2.85;;;;;;;;;;4952444;29;20302;-85
2023/08/14 04:42:04;;;;;;;2.38;2.28;;;;;;;;;;4951033;29;20210;-86
2023/08/14 04:44:33;;;;;;;2.95;2.75;;;;;;;;;;4951359;29;20206;-87
2023/08/14 04:47:02;;;;;;;2.83;2.63;;;;;;;;;;4951605;29;20203;-86
2023/08/14 04:49:30;;;;;;;6.85;2.85;;;;;;;;;;4950732;29;20218;-86
2023/08/14 04:52:00;;;;;;;2.33;2.22;;;;;;;;;;4951493;29;20230;-86
2023/08/14 04:54:27;;;;;;;3.33;3.00;;;;;;;;;;4951641;29;20210;-86
2023/08/14 04:56:56;;;;;;;2.88;2.67;;;;;;;;;;4951654;29;20202;-87
2023/08/14 04:59:28;;;;;;;60.08;30.73;;;;;;;;;;4950728;29;20703;-84
2023/08/14 05:01:57;;;;;;;3.20;3.05;;;;;;;;;;4952062;29;20202;-85
2023/08/14 05:04:27;;;;;;;2.28;2.17;;;;;;;;;;4951019;29;20203;-84
2023/08/14 05:06:56;;;;;;;2.42;2.33;;;;;;;;;;4951959;29;20285;-86
2023/08/14 05:09:25;;;;;;;2.70;2.50;;;;;;;;;;4951529;29;20230;-85
2023/08/14 05:11:54;;;;;;;17.30;10.75;;;;;;;;;;4950185;28;20709;-84
2023/08/14 05:14:22;;;;;;;3.20;3.00;;;;;;;;;;4951755;29;20264;-84
2023/08/14 05:16:52;;;;;;;2.88;2.72;;;;;;;;;;4950853;29;20194;-84
2023/08/14 05:19:21;;;;;;;3.30;2.78;;;;;;;;;;4950758;29;20208;-86
2023/08/14 05:21:50;;;;;;;2.53;2.42;;;;;;;;;;4951766;29;20712;-84
2023/08/14 05:24:19;;;;;;;3.45;2.90;;;;;;;;;;4951313;29;20309;-84
2023/08/14 05:26:48;;;;;;;2.63;2.53;;;;;;;;;;4950483;29;20214;-85
2023/08/14 05:29:18;;;;;;;3.15;2.83;;;;;;;;;;4951152;29;20247;-85
2023/08/14 05:31:47;;;;;;;3.05;2.95;;;;;;;;;;4950769;29;20312;-85
2023/08/14 05:34:19;;;;;;;2.60;2.47;;;;;;;;;;4950105;29;20213;-85
2023/08/14 05:36:48;;;;;;;2.97;2.78;;;;;;;;;;4950942;29;20664;-86
2023/08/14 05:39:18;;;;;;;2.70;2.50;;;;;;;;;;4951976;29;20206;-87
2023/08/14 05:41:49;;;;;;;3.58;2.78;;;;;;;;;;4950545;29;20198;-84
2023/08/14 05:44:18;;;;;;;8.68;2.70;;;;;;;;;;4951197;29;20218;-84
2023/08/14 05:46:50;;;;;;;2.67;2.58;;;;;;;;;;4950956;29;20268;-86
2023/08/14 05:49:23;;;;;;;2.67;2.58;;;;;;;;;;4950767;29;20194;-85
2023/08/14 05:51:53;;;;;;;2.80;2.70;;;;;;;;;;4950732;29;20363;-85
2023/08/14 05:54:21;;;;;;;2.55;2.30;;;;;;;;;;4950699;29;20237;-85
2023/08/14 05:56:52;;;;;;;3.67;2.25;;;;;;;;;;4950599;29;20209;-86
2023/08/14 05:59:22;;;;;;;5.75;2.83;;;;;;;;;;4950562;29;20198;-85
2023/08/14 06:01:49;;;;;;;2.58;2.47;;;;;;;;;;4950777;29;20700;-85
2023/08/14 06:04:19;;;;;;;2.53;2.40;;;;;;;;;;4949975;29;20228;-87
2023/08/14 06:06:49;;;;;;;6.22;2.38;;;;;;;;;;4950403;29;20297;-86
2023/08/14 06:09:17;;;;;;;6.28;2.97;;;;;;;;;;4950335;29;20273;-85
2023/08/14 06:11:44;;;;;;;2.83;2.72;;;;;;;;;;4949196;28;20254;-86
2023/08/14 06:14:14;;;;;;;4.20;2.83;;;;;;;;;;4950820;29;20216;-85
2023/08/14 06:16:45;;;;;;;4.68;2.03;;;;;;;;;;4950749;29;20580;-85
2023/08/14 06:19:14;;;;;;;3.13;2.05;;;;;;;;;;4949639;29;20301;-86
2023/08/14 06:21:42;;;;;;;2.60;2.42;;;;;;;;;;4950702;28;20202;-86
2023/08/14 06:24:16;;;;;;;3.30;1.90;;;;;;;;;;4953116;29;20664;-86
2023/08/14 06:26:46;;;;;;;2.28;2.13;;;;;;;;;;4953854;29;20616;-84
2023/08/14 06:29:17;;;;;;;4.88;2.80;;;;;;;;;;4954944;29;20205;-86
2023/08/14 06:31:46;;;;;;;2.67;2.58;;;;;;;;;;4954311;29;20234;-84
2023/08/14 06:34:14;;;;;;;2.08;2.08;;;;;;;;;;4954055;29;20218;-85
2023/08/14 06:36:43;;;;;;;3.78;2.17;;;;;;;;;;4954531;29;20202;-87
2023/08/14 06:39:14;;;;;;;3.10;2.40;;;;;;;;;;4954993;29;20237;-85
2023/08/14 06:41:44;;;;;;;2.50;2.40;;;;;;;;;;4954556;29;20202;-85
2023/08/14 06:44:14;;;;;;;2.75;2.38;;;;;;;;;;4953638;29;20768;-86
2023/08/14 06:46:43;;;;;;;2.55;2.13;;;;;;;;;;4953502;29;20273;-86
2023/08/14 06:49:12;;;;;;;2.20;2.05;;;;;;;;;;4954072;29;20245;-85
2023/08/14 06:51:42;;;;;;;1.80;1.80;;;;;;;;;;4953855;29;20244;-84
2023/08/14 06:54:11;;;;;;;2.28;2.20;;;;;;;;;;4953723;29;20205;-84
2023/08/14 06:56:41;;;;;;;2.75;2.63;;;;;;;;;;4954102;29;20237;-85
2023/08/14 06:59:09;;;;;;;2.38;2.15;;;;;;;;;;4954132;29;20552;-86
2023/08/14 07:01:38;;;;;;;2.05;1.98;;;;;;;;;;4953379;29;20206;-86
2023/08/14 07:04:08;;;;;;;2.15;2.05;;;;;;;;;;4954119;29;20198;-85
2023/08/14 07:06:37;;;;;;;2.22;2.00;;;;;;;;;;4953577;29;20210;-85
2023/08/14 07:09:06;;;;;;;3.40;2.00;;;;;;;;;;4953131;29;20222;-84
2023/08/14 07:11:39;;;;;;;2.15;1.92;;;;;;;;;;4963078;28;20242;-84
2023/08/14 07:14:10;;;;;;;2.10;2.03;;;;;;;;;;4966024;29;20211;-84
2023/08/14 07:16:39;;;;;;;2.25;2.15;;;;;;;;;;4953582;29;20222;-86
2023/08/14 07:19:07;;;;;;;2.33;2.22;;;;;;;;;;4954670;29;20296;-86
2023/08/14 07:21:35;;;;;;;1.90;1.80;;;;;;;;;;4953885;29;20207;-85
2023/08/14 07:24:04;;;;;;;2.40;1.77;;;;;;;;;;4953142;29;20679;-84
2023/08/14 07:26:33;;;;;;;2.33;2.13;;;;;;;;;;4954275;29;20206;-85
2023/08/14 07:29:03;;;;;;;1.73;1.70;;;;;;;;;;4953713;29;20198;-84
2023/08/14 07:31:33;;;;;;;2.05;1.95;;;;;;;;;;4952973;29;20215;-87
2023/08/14 07:34:02;;;;;;;5.38;1.98;;;;;;;;;;4952426;28;20199;-85
2023/08/14 07:36:31;;;;;;;3.15;2.10;;;;;;;;;;4953089;29;20583;-87
2023/08/14 07:39:00;;;;;;;1.80;1.35;;;;;;;;;;4952112;29;20287;-85
2023/08/14 07:41:30;;;;;;;2.47;2.38;;;;;;;;;;4953117;29;20222;-85
2023/08/14 07:44:01;;;;;;;1.60;1.60;;;;;;;;;;4953503;29;20608;-86
2023/08/14 07:46:31;;;;;;;1.52;1.42;;;;;;;;;;4951840;29;20197;-85
2023/08/14 07:49:01;;;;;;;1.65;1.55;;;;;;;;;;4952736;29;20211;-84
2023/08/14 07:51:30;;;;;;;1.88;1.50;;;;;;;;;;4952466;29;20348;-84
2023/08/14 07:53:59;;;;;;;1.75;1.70;;;;;;;;;;4952316;29;20358;-86
2023/08/14 07:56:32;;;;;;;1.90;1.80;;;;;;;;;;4953121;29;20203;-86
2023/08/14 07:59:02;;;;;;;4.65;1.70;;;;;;;;;;4952141;29;20195;-86
2023/08/14 08:01:34;;;;;;;1.55;1.55;;;;;;;;;;4953211;29;20210;-84
2023/08/14 08:04:05;;;;;;;1.80;1.70;;;;;;;;;;4952791;29;20695;-84
2023/08/14 08:06:34;;;;;;;1.80;1.70;;;;;;;;;;4952910;29;20286;-84
2023/08/14 08:09:01;;;;;;;1.50;1.50;;;;;;;;;;4951626;29;20223;-84
2023/08/14 08:11:32;;;;;;;1.85;1.75;;;;;;;;;;4952132;28;20238;-87
2023/08/14 08:14:05;;;;;;;1.90;1.60;;;;;;;;;;4952835;29;20213;-83
2023/08/14 08:16:35;;;;;;;1.70;1.70;;;;;;;;;;4951381;29;20255;-84
2023/08/14 08:19:07;;;;;;;1.98;1.83;;;;;;;;;;4952988;29;20686;-84
2023/08/14 08:21:36;;;;;;;1.42;1.42;;;;;;;;;;4952232;29;20213;-85
2023/08/14 08:24:06;;;;;;;2.20;2.10;;;;;;;;;;4951473;29;20218;-84
2023/08/14 08:26:35;;;;;;;5.95;1.88;;;;;;;;;;4952647;29;20199;-84
2023/08/14 08:29:03;;;;;;;2.05;1.95;;;;;;;;;;4951769;29;20203;-85
2023/08/14 08:31:32;;;;;;;1.88;1.77;;;;;;;;;;4950969;29;20199;-84
2023/08/14 08:34:02;;;;;;;1.70;1.60;;;;;;;;;;4951583;29;20209;-86
2023/08/14 08:36:35;;;;;;;1.98;1.88;;;;;;;;;;4951481;29;20206;-86
2023/08/14 08:39:04;;;;;;;1.92;1.83;;;;;;;;;;4951028;29;20187;-84
2023/08/14 08:41:34;;;;;;;2.00;1.83;;;;;;;;;;4951970;29;20213;-86
2023/08/14 08:44:05;;;;;;;3.75;2.58;;;;;;;;;;4951227;29;20286;-86
2023/08/14 08:46:36;;;;;;;1.90;1.80;;;;;;;;;;4950893;28;20211;-86
2023/08/14 08:49:05;;;;;;;2.33;2.22;;;;;;;;;;4952809;29;20284;-85
2023/08/14 08:51:36;;;;;;;1.67;1.60;;;;;;;;;;4952310;29;20211;-85
2023/08/14 08:54:05;;;;;;;1.92;1.83;;;;;;;;;;4951136;29;20194;-85
2023/08/14 08:56:34;;;;;;;1.65;1.55;;;;;;;;;;4951357;29;20207;-86
2023/08/14 08:59:03;;;;;;;1.77;1.63;;;;;;;;;;4952192;29;20203;-86
2023/08/14 09:01:32;;;;;;;3.67;1.55;;;;;;;;;;4951348;29;20211;-85
2023/08/14 09:04:02;;;;;;;1.80;1.70;;;;;;;;;;4952015;29;20665;-87
2023/08/14 09:06:31;;;;;;;1.70;1.60;;;;;;;;;;4951429;29;20229;-86
2023/08/14 09:09:00;;;;;;;3.63;1.80;;;;;;;;;;4950725;29;20226;-85
2023/08/14 09:11:29;;;;;;;1.65;1.65;;;;;;;;;;4950853;28;20306;-84
2023/08/14 09:14:01;;;;;;;1.63;1.52;;;;;;;;;;4951558;29;20230;-85
2023/08/14 09:16:32;;;;;;;2.33;1.80;;;;;;;;;;4950921;29;20203;-85
2023/08/14 09:19:00;;;;;;;1.92;1.83;;;;;;;;;;4954849;29;20222;-85
2023/08/14 09:21:31;;;;;;;1.70;1.70;;;;;;;;;;4954432;29;20266;-84
2023/08/14 09:24:02;;;;;;;2.17;1.95;;;;;;;;;;4961547;29;20202;-86
2023/08/14 09:26:30;;;;;;;1.98;1.88;;;;;;;;;;4954454;29;20571;-86
2023/08/14 09:28:59;;;;;;;2.50;1.63;;;;;;;;;;4953877;29;20201;-85
2023/08/14 09:31:30;;;;;;;1.95;1.90;;;;;;;;;;4952431;29;20294;-86
2023/08/14 09:33:59;;;;;;;3.88;1.70;;;;;;;;;;4952343;29;20237;-85
2023/08/14 09:36:33;;;;;;;1.98;1.88;;;;;;;;;;4951996;29;20632;-85
2023/08/14 09:39:07;;;;;;;1.33;1.33;;;;;;;;;;4951522;29;20589;-85
2023/08/14 09:41:37;;;;;;;1.75;1.65;;;;;;;;;;4951001;29;20665;-86
2023/08/14 09:44:06;;;;;;;3.30;1.80;;;;;;;;;;4951327;29;20219;-86
2023/08/14 09:46:35;;;;;;;1.45;1.45;;;;;;;;;;4950038;29;20209;-87
2023/08/14 09:49:06;;;;;;;2.05;1.30;;;;;;;;;;4950118;29;20203;-86
2023/08/14 09:51:34;;;;;;;3.65;1.60;;;;;;;;;;4951343;29;20218;-86
2023/08/14 09:54:11;;;;;;;2.25;2.05;;;;;;;;;;4950436;29;20614;-85
2023/08/14 09:56:39;;;;;;;1.80;1.70;;;;;;;;;;4950860;28;20186;-85
2023/08/14 09:59:12;;;;;;;1.88;1.80;;;;;;;;;;4953940;29;20657;-85
2023/08/14 10:01:41;;;;;;;2.03;1.92;;;;;;;;;;4955032;29;20219;-85
2023/08/14 10:04:10;;;;;;;1.58;1.58;;;;;;;;;;4954624;29;20214;-85
2023/08/14 10:06:39;;;;;;;1.73;1.70;;;;;;;;;;4953755;29;20238;-86
2023/08/14 10:09:10;;;;;;;1.98;1.50;;;;;;;;;;4954360;29;20664;-85
2023/08/14 10:11:38;;;;;;;1.83;1.73;;;;;;;;;;4954117;28;20234;-85
2023/08/14 10:14:09;;;;;;;1.90;1.80;;;;;;;;;;4953637;29;20313;-84
2023/08/14 10:16:39;;;;;;;2.88;1.50;;;;;;;;;;4953600;29;20285;-85
2023/08/14 10:19:10;;;;;;;1.70;1.60;;;;;;;;;;4954289;29;20225;-85
2023/08/14 10:21:40;;;;;;;1.98;1.75;;;;;;;;;;4953307;29;20689;-82
2023/08/14 10:24:12;;;;;;;1.63;1.63;;;;;;;;;;4954050;29;20203;-84
2023/08/14 10:26:41;;;;;;;2.08;1.70;;;;;;;;;;4953108;29;20190;-84
2023/08/14 10:29:10;;;;;;;1.73;1.63;;;;;;;;;;4953119;29;20206;-86
2023/08/14 10:31:40;;;;;;;3.10;1.88;;;;;;;;;;4953778;29;20253;-84
2023/08/14 10:34:08;;;;;;;1.80;1.70;;;;;;;;;;4954198;29;20799;-85
2023/08/14 10:36:37;;;;;;;2.70;1.60;;;;;;;;;;4953346;29;20303;-85
2023/08/14 10:39:10;;;;;;;1.52;1.42;;;;;;;;;;4954416;29;20266;-84
2023/08/14 10:41:39;;;;;;;2.28;1.95;;;;;;;;;;4954264;29;20293;-84
2023/08/14 10:44:08;;;;;;;2.75;1.90;;;;;;;;;;4953639;29;20203;-85
2023/08/14 10:46:40;;;;;;;1.90;1.80;;;;;;;;;;4954181;29;20282;-84
2023/08/14 10:49:09;;;;;;;1.70;1.50;;;;;;;;;;4953556;29;20255;-85
2023/08/14 10:51:40;;;;;;;1.75;1.70;;;;;;;;;;4953388;29;20198;-84
2023/08/14 10:54:15;;;;;;;2.20;2.00;;;;;;;;;;4954472;29;20711;-85
2023/08/14 10:56:45;;;;;;;1.80;1.70;;;;;;;;;;4954030;29;20210;-85
2023/08/14 10:59:24;;;;;;;1.50;1.50;;;;;;;;;;4969573;29;20207;-82
2023/08/14 11:02:08;;;;;;;1.77;1.67;;;;;;;;;;4965112;29;20203;-84
2023/08/14 11:04:41;;;;;;;1.80;1.70;;;;;;;;;;4953465;29;20210;-84
2023/08/14 11:07:11;;;;;;;1.50;1.50;;;;;;;;;;4952298;29;20230;-85
2023/08/14 11:09:40;;;;;;;1.83;1.73;;;;;;;;;;4952415;28;20246;-84
2023/08/14 11:12:09;;;;;;;4.97;1.88;;;;;;;;;;4953859;29;20195;-86
2023/08/14 11:14:40;;;;;;;1.70;1.60;;;;;;;;;;4952557;29;20317;-85
2023/08/14 11:17:08;;;;;;;2.00;1.90;;;;;;;;;;4954132;29;20210;-85
2023/08/14 11:19:38;;;;;;;2.00;1.90;;;;;;;;;;4953214;29;20207;-86
2023/08/14 11:22:08;;;;;;;1.80;1.70;;;;;;;;;;4952652;29;20657;-86
2023/08/14 11:24:38;;;;;;;1.90;1.67;;;;;;;;;;4953481;29;20238;-84
2023/08/14 11:27:09;;;;;;;1.70;1.58;;;;;;;;;;4953492;29;20581;-86
2023/08/14 11:29:39;;;;;;;1.75;1.60;;;;;;;;;;4952342;29;20207;-86
2023/08/14 11:32:07;;;;;;;1.65;1.65;;;;;;;;;;4953112;29;20205;-87
2023/08/14 11:34:38;;;;;;;1.70;1.65;;;;;;;;;;4952992;29;20238;-86
2023/08/14 11:37:07;;;;;;;1.80;1.70;;;;;;;;;;4952560;29;20203;-85
2023/08/14 11:39:36;;;;;;;1.63;1.60;;;;;;;;;;4952216;29;20207;-84
2023/08/14 11:42:05;;;;;;;1.80;1.70;;;;;;;;;;4953223;29;20266;-85
2023/08/14 11:44:37;;;;;;;1.90;1.90;;;;;;;;;;4952168;29;20689;-85
2023/08/14 11:47:08;;;;;;;1.92;1.73;;;;;;;;;;4953289;29;20198;-83
2023/08/14 11:49:40;;;;;;;1.92;1.50;;;;;;;;;;4953731;29;20191;-86
2023/08/14 11:52:09;;;;;;;1.95;1.85;;;;;;;;;;4954982;29;20208;-84
2023/08/14 11:54:39;;;;;;;2.25;2.13;;;;;;;;;;4954846;29;20234;-84
2023/08/14 11:57:08;;;;;;;1.73;1.63;;;;;;;;;;4954159;29;20214;-83
2023/08/14 11:59:38;;;;;;;5.30;1.75;;;;;;;;;;4952881;29;20289;-85
2023/08/14 12:02:07;;;;;;;1.52;1.52;;;;;;;;;;4954514;29;20230;-85
2023/08/14 12:04:40;;;;;;;1.92;1.83;;;;;;;;;;4952701;29;20263;-87
2023/08/14 12:07:10;;;;;;;1.88;1.77;;;;;;;;;;4951950;29;20202;-86
2023/08/14 12:09:38;;;;;;;1.60;1.60;;;;;;;;;;4952291;29;20218;-85
2023/08/14 12:12:09;;;;;;;1.50;1.50;;;;;;;;;;4932609;29;20282;-85
2023/08/14 12:14:44;;;;;;;1.58;1.58;;;;;;;;;;4931989;29;20775;-85
2023/08/14 12:17:13;;;;;;;1.85;1.75;;;;;;;;;;4933911;29;20214;-84
2023/08/14 12:19:44;;;;;;;1.75;1.65;;;;;;;;;;4932805;29;20266;-86
2023/08/14 12:22:13;;;;;;;1.83;1.70;;;;;;;;;;4932504;29;20703;-85
2023/08/14 12:24:45;;;;;;;2.40;2.20;;;;;;;;;;4933543;29;20208;-85
2023/08/14 12:27:18;;;;;;;5.95;1.80;;;;;;;;;;4931710;29;20251;-84
2023/08/14 12:29:49;;;;;;;1.30;1.30;;;;;;;;;;4932761;29;20254;-85
2023/08/14 12:32:18;;;;;;;2.42;2.22;;;;;;;;;;4933570;29;20251;-86
2023/08/14 12:34:47;;;;;;;2.22;2.00;;;;;;;;;;4932545;29;20235;-85
2023/08/14 12:37:16;;;;;;;1.75;1.75;;;;;;;;;;4932641;29;20207;-85
2023/08/14 12:39:54;;;;;;;11.65;1.98;;;;;;;;;;4933082;29;20222;-84
2023/08/14 12:42:23;;;;;;;2.22;1.42;;;;;;;;;;4930833;29;20207;-84
2023/08/14 12:44:54;;;;;;;1.38;1.38;;;;;;;;;;4932517;29;20286;-85
2023/08/14 12:47:26;;;;;;;1.85;1.75;;;;;;;;;;4932548;29;20776;-83
2023/08/14 12:49:55;;;;;;;1.55;1.55;;;;;;;;;;4931560;29;20192;-85
2023/08/14 12:52:24;;;;;;;3.53;1.45;;;;;;;;;;4932726;29;20239;-83
2023/08/14 12:54:53;;;;;;;1.63;1.63;;;;;;;;;;4932302;29;20756;-85
2023/08/14 12:57:25;;;;;;;1.30;1.30;;;;;;;;;;4931320;29;20223;-83
2023/08/14 12:59:56;;;;;;;1.45;1.45;;;;;;;;;;4932295;29;20227;-85
2023/08/14 13:02:27;;;;;;;1.80;1.70;;;;;;;;;;4931704;29;20291;-87
2023/08/14 13:04:56;;;;;;;1.80;1.70;;;;;;;;;;4930893;29;20204;-85
2023/08/14 13:07:25;;;;;;;6.60;1.77;;;;;;;;;;4932036;29;20199;-85
2023/08/14 13:09:57;;;;;;;2.10;1.98;;;;;;;;;;4933847;28;20283;-85
2023/08/14 13:12:25;;;;;;;1.52;1.42;;;;;;;;;;4950193;29;20637;-83
2023/08/14 13:14:58;;;;;;;1.73;1.63;;;;;;;;;;4950789;29;20250;-84
2023/08/14 13:17:25;;;;;;;1.45;1.42;;;;;;;;;;4950502;29;20207;-85
2023/08/14 13:19:55;;;;;;;3.75;1.48;;;;;;;;;;4949663;29;20640;-85
2023/08/14 13:22:26;;;;;;;1.65;1.55;;;;;;;;;;4951983;29;20203;-84
2023/08/14 13:25:01;;;;;;;1.25;1.25;;;;;;;;;;4950978;29;20302;-87
2023/08/14 13:27:34;;;;;;;1.80;1.70;;;;;;;;;;4949813;29;20666;-85
2023/08/14 13:30:04;;;;;;;1.42;1.42;;;;;;;;;;4951087;29;20713;-85
2023/08/14 13:32:33;;;;;;;1.63;1.52;;;;;;;;;;4949464;28;20207;-86
2023/08/14 13:35:03;;;;;;;1.50;1.40;;;;;;;;;;4949923;29;20720;-85
2023/08/14 13:37:32;;;;;;;1.27;1.27;;;;;;;;;;4950357;29;20206;-86
2023/08/14 13:40:00;;;;;;;1.45;1.38;;;;;;;;;;4950495;29;20290;-84
2023/08/14 13:42:31;;;;;;;1.30;1.30;;;;;;;;;;4951138;29;20195;-85
2023/08/14 13:45:00;;;;;;;1.27;1.17;;;;;;;;;;4951008;29;20225;-86
2023/08/14 13:47:31;;;;;;;1.30;1.30;;;;;;;;;;4951191;29;20195;-85
2023/08/14 13:50:00;;;;;;;1.80;1.67;;;;;;;;;;4951294;29;20199;-86
2023/08/14 13:52:30;;;;;;;2.35;1.50;;;;;;;;;;4950995;29;20214;-85
2023/08/14 13:54:59;;;;;;;2.00;1.77;;;;;;;;;;4950825;29;20226;-83
2023/08/14 13:57:31;;;;;;;1.33;1.33;;;;;;;;;;4950166;29;20672;-86
2023/08/14 14:00:03;;;;;;;1.77;1.60;;;;;;;;;;4950664;29;20223;-85
2023/08/14 14:02:34;;;;;;;2.20;2.00;;;;;;;;;;4950537;29;20195;-84
2023/08/14 14:05:04;;;;;;;1.67;1.65;;;;;;;;;;4950344;29;20207;-85
2023/08/14 14:07:33;;;;;;;1.60;1.50;;;;;;;;;;4950856;29;20202;-86
2023/08/14 14:10:03;;;;;;;1.40;1.30;;;;;;;;;;4950806;28;20599;-85
2023/08/14 14:12:34;;;;;;;1.10;1.10;;;;;;;;;;4958002;29;20230;-86
2023/08/14 14:15:02;;;;;;;1.25;1.25;;;;;;;;;;4950442;28;20383;-85
2023/08/14 14:17:34;;;;;;;1.23;1.23;;;;;;;;;;4951537;29;20199;-85
2023/08/14 14:20:08;;;;;;;1.38;1.38;;;;;;;;;;4955138;29;20207;-84
2023/08/14 14:22:37;;;;;;;5.80;1.33;;;;;;;;;;4962330;29;20245;-85
2023/08/14 14:25:07;;;;;;;8.30;1.38;;;;;;;;;;4960472;29;20262;-83
2023/08/14 14:27:36;;;;;;;1.10;1.10;;;;;;;;;;4959893;29;20270;-84
2023/08/14 14:30:03;;;;;;;1.50;1.50;;;;;;;;;;4962370;29;20203;-86
2023/08/14 14:32:35;;;;;;;1.48;1.38;;;;;;;;;;4958151;29;20203;-85
2023/08/14 14:35:04;;;;;;;1.30;1.30;;;;;;;;;;4955387;29;20227;-89
2023/08/14 14:37:33;;;;;;;1.10;1.10;;;;;;;;;;4953127;29;20198;-84
2023/08/14 14:40:04;;;;;;;1.40;1.30;;;;;;;;;;4952356;29;20199;-85
2023/08/14 14:42:34;;;;;;;1.80;1.02;;;;;;;;;;4952193;29;20211;-83
2023/08/14 14:45:03;;;;;;;1.38;1.38;;;;;;;;;;4958074;28;20207;-82
2023/08/14 14:47:31;;;;;;;1.35;1.25;;;;;;;;;;4968353;29;20266;-83
2023/08/14 14:50:02;;;;;;;1.27;1.23;;;;;;;;;;4967169;29;20222;-83
2023/08/14 14:52:31;;;;;;;1.38;1.35;;;;;;;;;;4961650;29;20217;-86
2023/08/14 14:55:02;;;;;;;1.00;1.00;;;;;;;;;;4962971;29;20311;-85
2023/08/14 14:57:31;;;;;;;1.65;1.65;;;;;;;;;;4955282;29;20306;-83
2023/08/14 15:00:04;;;;;;;1.75;1.67;;;;;;;;;;4954638;29;20203;-85